Time;durP1;ratioP1;P1;durP2;ratioP2;P2;SDS_P1;SDS_P2;PMS_P1;PMS_P2;Temp;Humidity;BMP_temperature;BMP_pressure;BME280_temperature;BME280_humidity;BME280_pressure;Samples;Min_cycle;Max_cycle;Signal;HPM_P1;HPM_P2
2023/07/17 00:01:03;;;;;;;11.23;10.10;;;;;;;22.77;63.74;95074.38;5054690;28;20111;-76
2023/07/17 00:03:28;;;;;;;11.10;9.82;;;;;;;22.75;63.88;95075.38;5069508;28;20025;-77
2023/07/17 00:05:58;;;;;;;11.57;10.38;;;;;;;22.75;63.95;95093.09;5068923;28;20036;-77
2023/07/17 00:08:24;;;;;;;11.43;9.90;;;;;;;22.65;63.71;95077.59;5051774;28;20108;-76
2023/07/17 00:10:49;;;;;;;11.45;9.45;;;;;;;22.70;63.69;95080.44;5067698;28;20028;-76
2023/07/17 00:13:15;;;;;;;11.48;10.27;;;;;;;22.45;63.80;95077.44;5068604;28;20036;-77
2023/07/17 00:15:40;;;;;;;10.68;9.30;;;;;;;22.50;63.30;95082.16;5065224;28;20084;-77
2023/07/17 00:18:06;;;;;;;11.20;9.07;;;;;;;22.53;62.57;95081.78;5072539;28;20174;-77
2023/07/17 00:20:32;;;;;;;9.68;8.45;;;;;;;22.60;61.61;95090.59;5051956;28;20105;-76
2023/07/17 00:22:57;;;;;;;8.82;7.93;;;;;;;22.65;60.87;95085.53;5069388;28;20029;-76
2023/07/17 00:25:23;;;;;;;9.02;8.13;;;;;;;22.65;60.63;95072.28;5067117;28;20037;-76
2023/07/17 00:27:48;;;;;;;10.48;9.35;;;;;;;22.65;62.59;95079.38;5069162;28;20036;-76
2023/07/17 00:30:14;;;;;;;9.95;8.50;;;;;;;22.64;62.36;95083.06;5083506;28;20036;-76
2023/07/17 00:32:39;;;;;;;11.88;8.48;;;;;;;22.70;62.09;95085.72;5069809;28;20032;-76
2023/07/17 00:35:05;;;;;;;9.73;8.73;;;;;;;22.71;63.08;95090.03;5078125;28;20035;-76
2023/07/17 00:37:31;;;;;;;9.95;8.60;;;;;;;22.79;63.12;95088.22;5048992;28;20113;-76
2023/07/17 00:39:56;;;;;;;10.27;8.15;;;;;;;22.66;63.00;95095.09;5059341;28;20033;-76
2023/07/17 00:42:21;;;;;;;9.40;8.50;;;;;;;22.53;62.71;95082.59;5067666;28;20047;-76
2023/07/17 00:44:47;;;;;;;9.55;8.35;;;;;;;22.47;61.93;95074.63;5075508;28;20494;-76
2023/07/17 00:47:12;;;;;;;8.82;7.70;;;;;;;22.40;61.48;95073.75;5083880;28;20032;-76
2023/07/17 00:49:38;;;;;;;10.30;8.18;;;;;;;22.37;62.15;95069.69;5053422;28;20521;-76
2023/07/17 00:52:04;;;;;;;10.77;8.15;;;;;;;22.41;62.59;95091.28;5052479;28;20106;-76
2023/07/17 00:54:30;;;;;;;8.98;7.93;;;;;;;22.42;61.87;95092.91;5072042;28;20455;-76
2023/07/17 00:56:55;;;;;;;9.68;7.93;;;;;;;;;;5072146;28;20036;-76
2023/07/17 00:59:21;;;;;;;8.85;7.70;;;;;;;22.30;61.73;95106.66;5074681;28;20032;-76
2023/07/17 01:01:46;;;;;;;8.23;7.43;;;;;;;22.23;62.39;95105.81;5067292;28;20027;-76
2023/07/17 01:04:12;;;;;;;8.00;7.20;;;;;;;22.18;62.10;95102.09;5050892;28;20491;-76
2023/07/17 01:06:39;;;;;;;10.23;7.53;;;;;;;22.10;62.58;95084.50;5051352;28;20474;-76
2023/07/17 01:09:06;;;;;;;8.80;7.82;;;;;;;22.06;62.70;95099.09;5070873;28;20033;-76
2023/07/17 01:11:31;;;;;;;7.55;6.80;;;;;;;22.01;60.74;95090.94;5049820;28;20029;-76
2023/07/17 01:13:57;;;;;;;7.25;6.50;;;;;;;21.98;61.47;95086.84;5068868;28;20029;-76
2023/07/17 01:16:22;;;;;;;7.53;6.70;;;;;;;21.95;60.72;95089.84;5066968;28;20513;-76
2023/07/17 01:18:47;;;;;;;7.47;6.15;;;;;;;21.89;57.75;95068.66;5068376;28;20511;-76
2023/07/17 01:21:13;;;;;;;7.28;6.20;;;;;;;21.82;58.78;95066.78;5069672;28;20033;-76
2023/07/17 01:23:38;;;;;;;6.45;5.78;;;;;;;22.01;57.75;95101.53;5068437;28;20043;-76
2023/07/17 01:26:11;;;;;;;8.38;5.40;;;;;;;21.95;57.25;95083.75;5068136;28;20567;-76
2023/07/17 01:28:37;;;;;;;6.85;5.57;;;;;;;22.01;56.98;95098.88;5068903;28;20108;-76
2023/07/17 01:31:03;;;;;;;7.78;5.95;;;;;;;21.95;56.98;95095.16;5057520;28;20044;-76
2023/07/17 01:33:28;;;;;;;7.30;5.70;;;;;;;22.06;56.32;95096.47;5070795;28;20035;-76
2023/07/17 01:35:54;;;;;;;6.03;5.43;;;;;;;22.03;55.96;95097.66;5071593;28;20041;-76
2023/07/17 01:38:19;;;;;;;6.07;5.47;;;;;;;22.00;56.10;95092.75;5070928;28;20044;-76
2023/07/17 01:40:44;;;;;;;6.18;5.40;;;;;;;21.97;55.78;95105.56;5075187;28;20032;-76
2023/07/17 01:43:10;;;;;;;10.15;5.50;;;;;;;21.92;55.39;95097.38;5071711;28;20021;-77
2023/07/17 01:45:35;;;;;;;5.72;5.22;;;;;;;22.02;54.96;95095.22;5071723;28;20399;-76
2023/07/17 01:48:01;;;;;;;5.80;5.00;;;;;;;21.96;55.16;95109.22;5071935;28;20402;-76
2023/07/17 01:50:26;;;;;;;10.90;5.55;;;;;;;21.96;56.62;95111.84;5071388;28;20496;-76
2023/07/17 01:52:51;;;;;;;5.90;5.25;;;;;;;21.80;56.84;95094.41;5072009;28;20036;-76
2023/07/17 01:55:17;;;;;;;6.32;5.72;;;;;;;21.86;57.33;95098.94;5069943;28;20044;-76
2023/07/17 01:57:42;;;;;;;6.60;5.00;;;;;;;21.74;57.07;95103.94;5088272;28;20055;-76
2023/07/17 02:00:12;;;;;;;6.10;5.18;;;;;;;21.63;57.49;95097.31;5074554;28;20094;-76
2023/07/17 02:02:37;;;;;;;5.65;5.03;;;;;;;21.49;58.69;95086.81;5070581;28;20056;-76
2023/07/17 02:05:03;;;;;;;5.80;5.20;;;;;;;21.50;57.21;95089.25;5071204;28;20498;-76
2023/07/17 02:07:28;;;;;;;6.32;4.97;;;;;;;21.61;57.51;95098.50;5071215;28;20082;-76
2023/07/17 02:09:54;;;;;;;6.32;5.20;;;;;;;21.68;56.78;95117.91;5056823;28;20036;-76
2023/07/17 02:12:19;;;;;;;7.15;5.30;;;;;;;21.60;56.34;95102.16;5070179;28;20518;-76
2023/07/17 02:14:44;;;;;;;5.85;4.93;;;;;;;21.49;56.64;95108.75;5073211;28;20490;-76
2023/07/17 02:17:10;;;;;;;5.50;4.93;;;;;;;21.46;57.11;95124.19;5070676;28;20032;-77
2023/07/17 02:19:35;;;;;;;7.07;4.80;;;;;;;21.63;56.15;95130.84;5072189;28;20052;-76
2023/07/17 02:22:01;;;;;;;9.85;5.05;;;;;;;21.57;56.07;95116.56;5071304;28;20032;-76
2023/07/17 02:24:26;;;;;;;5.57;5.00;;;;;;;21.60;56.03;95115.38;5073159;28;20039;-76
2023/07/17 02:26:53;;;;;;;6.57;4.50;;;;;;;21.39;55.94;95108.22;5072223;28;20483;-76
2023/07/17 02:29:19;;;;;;;5.57;4.93;;;;;;;21.55;55.53;95107.19;5054332;28;20271;-76
2023/07/17 02:31:45;;;;;;;8.80;4.70;;;;;;;21.48;55.26;95116.84;5069369;28;20032;-76
2023/07/17 02:34:10;;;;;;;6.80;4.95;;;;;;;21.40;55.46;95112.53;5071073;28;20086;-76
2023/07/17 02:36:37;;;;;;;5.22;4.70;;;;;;;21.34;55.63;95116.72;5052719;28;20418;-76
2023/07/17 02:39:04;;;;;;;5.10;4.47;;;;;;;21.51;55.81;95137.66;5070480;28;20031;-76
2023/07/17 02:41:29;;;;;;;5.63;4.95;;;;;;;21.47;55.39;95126.63;5034872;28;20024;-76
2023/07/17 02:43:55;;;;;;;8.00;4.75;;;;;;;21.45;55.46;95127.81;5071082;28;20109;-76
2023/07/17 02:46:20;;;;;;;6.93;4.63;;;;;;;21.38;55.11;95125.09;5072287;28;20032;-76
2023/07/17 02:48:46;;;;;;;6.90;4.88;;;;;;;21.36;54.85;95119.16;5072173;28;20033;-76
2023/07/17 02:51:11;;;;;;;8.57;4.63;;;;;;;21.50;55.00;95136.00;5072168;28;20398;-76
2023/07/17 02:53:37;;;;;;;6.07;4.70;;;;;;;21.47;54.79;95141.66;5071131;28;20107;-76
2023/07/17 02:56:03;;;;;;;7.75;5.00;;;;;;;21.31;55.21;95124.16;5073815;28;20036;-76
2023/07/17 02:58:28;;;;;;;5.72;4.57;;;;;;;21.44;54.79;95131.47;5052465;28;20410;-76
2023/07/17 03:00:53;;;;;;;7.63;4.63;;;;;;;21.33;54.99;95132.72;5106283;27;20047;-76
2023/07/17 03:03:19;;;;;;;6.82;4.80;;;;;;;21.45;55.08;95143.66;5069108;28;20043;-76
2023/07/17 03:05:44;;;;;;;5.82;4.65;;;;;;;21.22;55.09;95125.28;5069995;28;20036;-76
2023/07/17 03:08:10;;;;;;;5.15;4.60;;;;;;;21.18;55.05;95116.91;5070029;28;20024;-76
2023/07/17 03:10:35;;;;;;;5.25;4.65;;;;;;;21.32;55.19;95131.09;5071003;28;20028;-76
2023/07/17 03:13:01;;;;;;;5.53;4.25;;;;;;;21.23;54.67;95121.63;5070377;28;20410;-76
2023/07/17 03:15:26;;;;;;;6.68;4.50;;;;;;;21.26;54.88;95126.56;5068199;28;20028;-76
2023/07/17 03:17:51;;;;;;;6.70;4.80;;;;;;;21.35;54.67;95136.00;5069851;28;20055;-76
2023/07/17 03:20:17;;;;;;;5.00;4.45;;;;;;;21.20;54.71;95125.47;5068998;28;20040;-76
2023/07/17 03:22:43;;;;;;;6.30;4.22;;;;;;;21.29;54.32;95128.84;5069771;28;20464;-76
2023/07/17 03:25:08;;;;;;;7.10;4.28;;;;;;;21.32;54.73;95147.75;5070866;28;20040;-76
2023/07/17 03:27:34;;;;;;;4.88;4.07;;;;;;;21.24;54.45;95139.94;5068206;28;20098;-76
2023/07/17 03:29:59;;;;;;;6.50;4.40;;;;;;;21.31;54.72;95148.78;5067219;28;20078;-76
2023/07/17 03:32:25;;;;;;;8.95;4.47;;;;;;;21.28;54.21;95141.19;5067548;28;20028;-76
2023/07/17 03:34:50;;;;;;;6.85;4.65;;;;;;;21.34;54.34;95160.78;5056098;28;20052;-76
2023/07/17 03:37:16;;;;;;;4.95;4.43;;;;;;;21.20;54.82;95149.22;5051294;28;20029;-76
2023/07/17 03:39:41;;;;;;;9.35;4.80;;;;;;;21.32;54.49;95150.41;5088195;28;20477;-76
2023/07/17 03:42:10;;;;;;;6.20;4.25;;;;;;;21.26;54.57;95145.88;5069354;28;20033;-76
2023/07/17 03:44:38;;;;;;;4.80;4.30;;;;;;;21.28;54.87;95159.69;5040745;28;20024;-76
2023/07/17 03:47:05;;;;;;;9.32;4.43;;;;;;;21.31;54.48;95164.63;5069627;28;20057;-76
2023/07/17 03:49:30;;;;;;;6.15;4.32;;;;;;;21.26;54.95;95150.34;5053051;28;20024;-76
2023/07/17 03:51:58;;;;;;;9.30;4.47;;;;;;;21.47;54.51;95153.03;5067908;28;20051;-76
2023/07/17 03:54:23;;;;;;;5.57;4.40;;;;;;;21.29;55.25;95161.34;5055207;28;20528;-76
2023/07/17 03:56:49;;;;;;;5.72;4.60;;;;;;;21.25;55.15;95154.78;5053905;28;20028;-76
2023/07/17 03:59:14;;;;;;;5.22;4.60;;;;;;;21.33;54.65;95156.50;5086854;28;20028;-76
2023/07/17 04:01:40;;;;;;;6.30;4.47;;;;;;;21.50;54.41;95167.72;5050182;28;20085;-76
2023/07/17 04:04:06;;;;;;;8.00;4.75;;;;;;;21.42;54.39;95155.41;5071708;28;20059;-76
2023/07/17 04:06:31;;;;;;;7.13;4.30;;;;;;;21.36;54.51;95154.31;5070526;28;20029;-76
2023/07/17 04:08:57;;;;;;;7.90;4.68;;;;;;;21.55;54.14;95162.69;5069254;28;20036;-76
2023/07/17 04:11:23;;;;;;;8.70;4.47;;;;;;;22.11;52.75;95165.50;5062969;28;20028;-76
2023/07/17 04:13:48;;;;;;;7.60;4.43;;;;;;;22.89;50.41;95162.84;5069312;28;20410;-76
2023/07/17 04:16:15;;;;;;;5.40;4.57;;;;;;;23.55;48.72;95149.13;5075837;28;20039;-76
2023/07/17 04:18:40;;;;;;;9.90;4.60;;;;;;;24.14;47.04;95156.41;5068959;28;20041;-76
2023/07/17 04:21:07;;;;;;;5.10;3.90;;;;;;;24.78;45.70;95162.94;5087959;28;20466;-76
2023/07/17 04:23:32;;;;;;;4.47;3.88;;;;;;;25.54;45.40;95178.28;5067776;28;20033;-76
2023/07/17 04:25:58;;;;;;;4.97;4.32;;;;;;;26.19;43.11;95174.72;5094400;28;20025;-76
2023/07/17 04:28:23;;;;;;;4.75;4.00;;;;;;;26.63;41.56;95164.97;5065891;28;20036;-79
2023/07/17 04:30:49;;;;;;;4.70;4.13;;;;;;;27.02;40.96;95149.63;5067535;28;20414;-77
2023/07/17 04:33:14;;;;;;;4.50;3.63;;;;;;;27.82;38.83;95162.88;5068444;28;20036;-76
2023/07/17 04:35:39;;;;;;;5.05;3.60;;;;;;;28.23;38.10;95169.31;5066808;28;20035;-77
2023/07/17 04:38:05;;;;;;;4.38;3.72;;;;;;;28.49;37.73;95162.75;5072728;28;20099;-77
2023/07/17 04:40:30;;;;;;;7.03;4.13;;;;;;;28.58;37.46;95156.00;5064966;28;20471;-72
2023/07/17 04:42:58;;;;;;;4.40;3.85;;;;;;;29.13;36.43;95165.56;5052125;28;20067;-76
2023/07/17 04:45:24;;;;;;;5.32;4.00;;;;;;;29.57;35.90;95152.59;5082908;28;20040;-74
2023/07/17 04:47:49;;;;;;;5.70;4.20;;;;;;;29.65;35.46;95165.63;5059598;28;20025;-75
2023/07/17 04:50:15;;;;;;;5.82;3.70;;;;;;;29.88;35.00;95169.25;5051384;28;20033;-75
2023/07/17 04:52:41;;;;;;;5.53;3.67;;;;;;;29.66;35.27;95175.25;5047877;28;20039;-75
2023/07/17 04:55:07;;;;;;;5.60;3.67;;;;;;;29.29;35.86;95183.59;5064885;28;20584;-75
2023/07/17 04:57:32;;;;;;;5.85;3.95;;;;;;;28.79;37.01;95165.34;5050854;28;20072;-72
2023/07/17 04:59:57;;;;;;;7.30;4.00;;;;;;;28.44;37.35;95168.78;5067209;28;20032;-73
2023/07/17 05:02:23;;;;;;;5.68;3.72;;;;;;;28.33;37.46;95179.41;5067226;28;20046;-73
2023/07/17 05:04:48;;;;;;;4.63;3.60;;;;;;;28.18;37.75;95182.50;5053665;28;20025;-72
2023/07/17 05:07:14;;;;;;;7.55;4.40;;;;;;;27.22;41.43;95198.28;5054859;28;20028;-72
2023/07/17 05:09:39;;;;;;;9.30;4.85;;;;;;;27.07;42.25;95171.09;5039701;28;20062;-72
2023/07/17 05:12:05;;;;;;;7.85;4.70;;;;;;;27.37;42.66;95172.03;5072910;28;20483;-72
2023/07/17 05:14:30;;;;;;;13.50;4.68;;;;;;;27.49;41.65;95177.44;5073071;28;20067;-72
2023/07/17 05:16:56;;;;;;;7.38;4.78;;;;;;;27.55;41.75;95173.88;5067673;28;20067;-72
2023/07/17 05:19:21;;;;;;;6.40;3.88;;;;;;;27.50;41.21;95187.06;5073761;28;20048;-72
2023/07/17 05:21:47;;;;;;;7.65;4.10;;;;;;;27.67;40.48;95186.47;5084743;28;20458;-72
2023/07/17 05:24:12;;;;;;;5.50;3.90;;;;;;;27.51;40.08;95188.69;5052073;28;20402;-73
2023/07/17 05:26:38;;;;;;;6.40;4.20;;;;;;;27.46;39.97;95177.88;5052181;28;20527;-72
2023/07/17 05:29:04;;;;;;;5.75;4.13;;;;;;;27.45;40.37;95200.28;5051738;28;20025;-72
2023/07/17 05:31:30;;;;;;;8.05;3.83;;;;;;;27.34;40.46;95188.47;5068974;28;20055;-72
2023/07/17 05:33:56;;;;;;;5.13;3.85;;;;;;;27.25;40.94;95194.34;5053346;28;20037;-73
2023/07/17 05:36:22;;;;;;;6.07;4.22;;;;;;;27.32;40.89;95200.41;5069407;28;20075;-73
2023/07/17 05:38:47;;;;;;;5.88;3.95;;;;;;;27.09;41.36;95190.38;5071429;28;20477;-73
2023/07/17 05:41:12;;;;;;;6.82;4.45;;;;;;;27.20;41.57;95188.88;5074645;28;20039;-73
2023/07/17 05:43:38;;;;;;;4.38;3.97;;;;;;;27.22;41.90;95184.09;5062706;28;20025;-73
2023/07/17 05:46:03;;;;;;;6.78;4.15;;;;;;;27.26;40.91;95201.31;5053151;28;20037;-73
2023/07/17 05:48:29;;;;;;;6.72;4.13;;;;;;;27.26;41.70;95198.63;5048095;28;20017;-72
2023/07/17 05:50:54;;;;;;;6.20;3.92;;;;;;;27.49;41.17;95200.63;5093433;28;20414;-72
2023/07/17 05:53:19;;;;;;;4.70;4.20;;;;;;;27.67;40.68;95197.97;5072729;28;20028;-72
2023/07/17 05:55:46;;;;;;;5.75;3.67;;;;;;;27.74;39.70;95188.00;5063972;28;20042;-73
2023/07/17 05:58:11;;;;;;;6.43;4.25;;;;;;;27.95;39.98;95197.41;5076025;28;20113;-72
2023/07/17 06:00:37;;;;;;;7.78;5.00;;;;;;;27.66;41.57;95203.50;5056012;28;20479;-72
2023/07/17 06:03:02;;;;;;;9.43;4.90;;;;;;;27.76;41.88;95193.13;5080420;28;20028;-72
2023/07/17 06:05:28;;;;;;;7.07;4.72;;;;;;;27.58;41.78;95205.44;5038102;28;20034;-72
2023/07/17 06:07:53;;;;;;;9.15;5.18;;;;;;;27.57;41.71;95208.34;5071189;28;20082;-72
2023/07/17 06:10:19;;;;;;;9.63;5.18;;;;;;;27.55;41.44;95189.91;5053641;28;20032;-72
2023/07/17 06:12:44;;;;;;;5.70;4.85;;;;;;;27.87;42.29;95191.59;5082552;28;20036;-72
2023/07/17 06:15:12;;;;;;;6.82;5.45;;;;;;;27.99;41.13;95198.56;5077616;28;20076;-72
2023/07/17 06:17:38;;;;;;;7.85;5.25;;;;;;;27.44;41.98;95193.28;5070732;28;20025;-73
2023/07/17 06:20:05;;;;;;;11.00;5.25;;;;;;;27.78;41.58;95204.41;5063644;28;20489;-72
2023/07/17 06:22:30;;;;;;;9.48;5.55;;;;;;;27.84;40.94;95198.19;5061719;28;20025;-73
2023/07/17 06:24:56;;;;;;;6.47;5.03;;;;;;;27.88;41.25;95175.31;5067363;28;20465;-72
2023/07/17 06:27:21;;;;;;;8.80;5.30;;;;;;;27.88;41.68;95191.34;5071288;28;20053;-75
2023/07/17 06:29:47;;;;;;;7.88;5.05;;;;;;;27.73;41.36;95193.56;5071573;28;20409;-75
2023/07/17 06:32:13;;;;;;;9.82;5.43;;;;;;;28.01;40.80;95193.03;5072663;28;20028;-75
2023/07/17 06:34:41;;;;;;;7.60;5.07;;;;;;;27.63;40.94;95183.41;5054886;28;20037;-75
2023/07/17 06:37:07;;;;;;;6.80;5.20;;;;;;;27.71;41.79;95187.63;5070329;28;20036;-75
2023/07/17 06:39:32;;;;;;;8.20;5.60;;;;;;;28.21;41.68;95198.09;5072627;28;20051;-75
2023/07/17 06:41:58;;;;;;;7.65;5.63;;;;;;;28.19;41.20;95200.16;5054578;28;20032;-75
2023/07/17 06:44:24;;;;;;;7.80;5.70;;;;;;;28.18;41.27;95195.88;5071245;28;20437;-75
2023/07/17 06:46:49;;;;;;;8.93;5.80;;;;;;;28.28;41.06;95183.59;5068214;28;20021;-75
2023/07/17 06:49:15;;;;;;;10.63;6.20;;;;;;;28.60;41.13;95190.53;5069714;28;20032;-75
2023/07/17 06:51:40;;;;;;;8.02;5.97;;;;;;;28.86;40.53;95189.25;5052494;28;20044;-75
2023/07/17 06:54:05;;;;;;;9.60;6.22;;;;;;;28.93;40.39;95190.78;5069785;28;20474;-75
2023/07/17 06:56:31;;;;;;;7.82;6.63;;;;;;;28.95;41.17;95182.53;5071005;28;20483;-75
2023/07/17 06:58:56;;;;;;;8.38;6.50;;;;;;;29.04;40.41;95180.34;5054115;28;20394;-75
2023/07/17 07:01:22;;;;;;;9.40;6.82;;;;;;;29.27;40.37;95185.66;5072356;28;20032;-75
2023/07/17 07:03:47;;;;;;;10.80;6.63;;;;;;;28.93;40.70;95174.75;5071997;28;20021;-75
2023/07/17 07:06:12;;;;;;;14.23;7.22;;;;;;;28.65;41.56;95177.31;5070783;28;20036;-75
2023/07/17 07:08:38;;;;;;;8.30;7.10;;;;;;;28.42;42.28;95156.69;5053847;28;20036;-75
2023/07/17 07:11:04;;;;;;;10.07;7.20;;;;;;;28.79;42.19;95183.25;5070598;28;20090;-75
2023/07/17 07:13:29;;;;;;;13.25;7.85;;;;;;;28.78;42.16;95169.06;5053803;28;20020;-75
2023/07/17 07:15:55;;;;;;;9.05;7.07;;;;;;;29.13;42.27;95179.75;5037513;28;20028;-75
2023/07/17 07:18:20;;;;;;;10.48;7.28;;;;;;;29.11;42.19;95178.34;5070284;28;20052;-75
2023/07/17 07:20:46;;;;;;;10.15;7.55;;;;;;;28.95;41.83;95182.53;5070601;28;20036;-75
2023/07/17 07:23:11;;;;;;;12.98;7.30;;;;;;;29.08;41.48;95166.28;5053634;28;20039;-76
2023/07/17 07:25:37;;;;;;;10.70;7.68;;;;;;;29.43;40.73;95169.97;5069653;28;20028;-75
2023/07/17 07:28:03;;;;;;;10.02;7.53;;;;;;;29.44;41.85;95171.56;5070316;28;20032;-75
2023/07/17 07:30:29;;;;;;;9.82;7.72;;;;;;;29.71;40.66;95164.66;5070502;28;20025;-75
2023/07/17 07:32:54;;;;;;;8.85;7.95;;;;;;;30.15;39.29;95169.50;5070173;28;20115;-75
2023/07/17 07:35:19;;;;;;;11.20;8.35;;;;;;;29.89;39.90;95154.81;5070390;28;20078;-75
2023/07/17 07:37:45;;;;;;;9.43;7.93;;;;;;;29.85;39.73;95159.84;5070130;28;20470;-75
2023/07/17 07:40:12;;;;;;;10.27;8.13;;;;;;;29.68;40.37;95157.13;5053230;28;20024;-75
2023/07/17 07:42:38;;;;;;;11.70;8.23;;;;;;;29.90;40.97;95161.81;5053614;28;20033;-75
2023/07/17 07:45:05;;;;;;;8.68;7.75;;;;;;;30.04;40.38;95150.56;5070144;28;20418;-75
2023/07/17 07:47:31;;;;;;;12.02;7.97;;;;;;;30.21;40.47;95169.34;5069982;28;20069;-75
2023/07/17 07:49:56;;;;;;;9.68;8.63;;;;;;;30.25;40.44;95148.25;5070017;28;20032;-75
2023/07/17 07:52:22;;;;;;;10.93;9.27;;;;;;;29.94;40.10;95157.59;5071075;28;20028;-75
2023/07/17 07:54:47;;;;;;;10.60;8.73;;;;;;;29.82;40.36;95166.47;5053126;28;20028;-75
2023/07/17 07:57:13;;;;;;;11.18;8.75;;;;;;;30.44;39.37;95160.38;5053063;28;20530;-75
2023/07/17 07:59:38;;;;;;;12.90;9.70;;;;;;;30.17;40.26;95154.81;5071237;28;20021;-75
2023/07/17 08:02:04;;;;;;;12.23;9.27;;;;;;;30.42;39.44;95156.31;5070954;28;20074;-75
2023/07/17 08:04:29;;;;;;;11.25;9.10;;;;;;;30.41;39.24;95152.00;5070031;28;20479;-75
2023/07/17 08:06:55;;;;;;;13.52;9.80;;;;;;;30.23;40.48;95150.38;5069801;28;20029;-75
2023/07/17 08:09:20;;;;;;;10.10;9.07;;;;;;;30.22;40.81;95154.91;5069719;28;20087;-75
2023/07/17 08:11:46;;;;;;;11.35;10.10;;;;;;;30.13;40.75;95147.50;5071032;28;20415;-75
2023/07/17 08:14:11;;;;;;;11.70;9.43;;;;;;;30.35;40.41;95148.44;5070864;28;20529;-75
2023/07/17 08:16:37;;;;;;;10.10;8.95;;;;;;;30.43;39.97;95141.88;5069615;28;20418;-75
2023/07/17 08:19:02;;;;;;;17.63;10.02;;;;;;;30.47;39.87;95151.03;5070610;28;20044;-75
2023/07/17 08:21:28;;;;;;;12.27;9.05;;;;;;;30.31;39.48;95141.13;5069632;28;20276;-75
2023/07/17 08:23:53;;;;;;;11.50;9.93;;;;;;;30.53;39.27;95150.06;5069537;28;20031;-75
2023/07/17 08:26:18;;;;;;;14.80;9.27;;;;;;;30.44;39.90;95127.41;5070836;28;20025;-75
2023/07/17 08:28:44;;;;;;;10.65;9.27;;;;;;;30.61;39.35;95141.59;5052695;28;20070;-75
2023/07/17 08:31:09;;;;;;;12.80;9.10;;;;;;;30.56;40.12;95138.84;5052731;28;20441;-75
2023/07/17 08:33:35;;;;;;;11.05;9.05;;;;;;;30.76;38.36;95126.81;5070703;28;20032;-75
2023/07/17 08:36:00;;;;;;;13.05;9.65;;;;;;;30.77;38.99;95139.16;5070695;28;20468;-75
2023/07/17 08:38:25;;;;;;;11.40;8.80;;;;;;;30.87;39.00;95136.66;5055871;28;20046;-75
2023/07/17 08:40:54;;;;;;;11.27;8.85;;;;;;;30.90;40.07;95145.03;5075241;28;20024;-75
2023/07/17 08:43:22;;;;;;;11.60;9.27;;;;;;;31.04;39.06;95124.03;5073521;28;20028;-76
2023/07/17 08:45:48;;;;;;;12.00;8.65;;;;;;;31.11;39.40;95139.94;5073432;28;20044;-75
2023/07/17 08:48:14;;;;;;;11.45;9.05;;;;;;;31.26;39.07;95136.63;5073414;28;20024;-75
2023/07/17 08:50:40;;;;;;;11.50;9.43;;;;;;;31.29;38.97;95136.16;5056859;28;20040;-76
2023/07/17 08:53:06;;;;;;;15.10;8.77;;;;;;;31.24;39.05;95120.00;5073270;28;20025;-76
2023/07/17 08:55:32;;;;;;;16.20;9.65;;;;;;;31.48;37.92;95121.41;5056789;28;20505;-76
2023/07/17 08:57:57;;;;;;;12.57;9.45;;;;;;;31.43;38.07;95121.34;5073176;28;20031;-76
2023/07/17 09:00:23;;;;;;;12.35;9.20;;;;;;;31.84;36.80;95116.41;5073319;28;20036;-75
2023/07/17 09:02:50;;;;;;;13.02;8.75;;;;;;;31.68;38.07;95114.63;5073105;28;20025;-75
2023/07/17 09:05:15;;;;;;;14.23;9.20;;;;;;;31.62;37.33;95121.81;5074657;28;20105;-77
2023/07/17 09:07:41;;;;;;;14.15;8.85;;;;;;;31.56;37.15;95122.81;5056210;28;20058;-75
2023/07/17 09:10:19;;;;;;;12.30;8.73;;;;;;;31.37;37.97;95107.06;5072994;28;20033;-75
2023/07/17 09:12:58;;;;;;;12.75;9.48;;;;;;;31.41;37.74;95118.09;5056248;28;20032;-75
2023/07/17 09:15:28;;;;;;;11.68;8.40;;;;;;;31.34;37.40;95104.84;5056357;28;20512;-75
2023/07/17 09:17:53;;;;;;;11.80;8.68;;;;;;;31.70;38.07;95117.88;5072538;28;20053;-75
2023/07/17 09:20:19;;;;;;;11.55;8.63;;;;;;;31.57;36.96;95105.66;5072644;28;20040;-75
2023/07/17 09:22:45;;;;;;;15.40;8.82;;;;;;;31.60;37.28;95121.25;5072682;28;20043;-75
2023/07/17 09:25:10;;;;;;;13.30;8.85;;;;;;;32.05;36.76;95107.53;5072887;28;20036;-75
2023/07/17 09:27:45;;;;;;;12.50;9.15;;;;;;;32.00;36.06;95104.78;5072650;28;20509;-75
2023/07/17 09:30:13;;;;;;;12.10;8.57;;;;;;;32.03;36.51;95104.28;5074130;28;20035;-75
2023/07/17 09:32:38;;;;;;;17.05;8.93;;;;;;;32.25;36.13;95095.34;5072551;28;20033;-75
2023/07/17 09:35:04;;;;;;;12.45;8.20;;;;;;;32.28;34.18;95094.81;5072666;28;20037;-75
2023/07/17 09:37:31;;;;;;;10.43;8.63;;;;;;;32.13;35.00;95092.00;5072378;28;20036;-75
2023/07/17 09:39:58;;;;;;;8.52;7.45;;;;;;;32.19;34.71;95091.78;5072431;28;20486;-75
2023/07/17 09:42:24;;;;;;;8.93;8.00;;;;;;;32.29;34.38;95093.78;5072394;28;20040;-76
2023/07/17 09:44:50;;;;;;;11.65;7.47;;;;;;;32.49;34.00;95096.63;5055828;28;20533;-76
2023/07/17 09:47:15;;;;;;;10.80;7.88;;;;;;;32.28;33.75;95095.63;5055461;28;20119;-75
2023/07/17 09:49:41;;;;;;;9.85;6.78;;;;;;;32.28;32.39;95092.13;5071250;28;20036;-76
2023/07/17 09:52:06;;;;;;;11.15;6.40;;;;;;;32.47;32.13;95093.38;5055442;28;20032;-75
2023/07/17 09:54:33;;;;;;;7.80;5.40;;;;;;;32.31;30.35;95088.13;5055504;28;20028;-76
2023/07/17 09:56:58;;;;;;;8.48;5.25;;;;;;;32.57;31.78;95079.22;5072093;28;20089;-75
2023/07/17 09:59:24;;;;;;;8.82;6.43;;;;;;;33.09;31.78;95088.41;5055335;28;20029;-76
2023/07/17 10:01:50;;;;;;;9.05;6.80;;;;;;;33.19;30.32;95090.34;5072120;28;20028;-75
2023/07/17 10:04:17;;;;;;;9.38;7.03;;;;;;;33.10;30.90;95084.66;5071928;28;20107;-76
2023/07/17 10:06:42;;;;;;;9.27;6.78;;;;;;;33.02;31.54;95082.47;5072000;28;20052;-76
2023/07/17 10:09:09;;;;;;;7.60;6.30;;;;;;;33.10;30.89;95090.84;5071920;28;20478;-76
2023/07/17 10:11:35;;;;;;;7.85;6.28;;;;;;;32.94;30.82;95070.28;5055436;28;20526;-75
2023/07/17 10:14:01;;;;;;;8.93;6.20;;;;;;;33.17;30.00;95079.03;5071785;28;20029;-76
2023/07/17 10:16:26;;;;;;;7.18;6.47;;;;;;;33.12;31.11;95079.81;5055112;28;20033;-76
2023/07/17 10:18:55;;;;;;;10.88;6.68;;;;;;;33.26;31.12;95067.47;5071499;28;20044;-76
2023/07/17 10:21:20;;;;;;;9.25;6.70;;;;;;;33.20;30.46;95073.94;5071742;28;20040;-76
2023/07/17 10:23:47;;;;;;;7.68;6.55;;;;;;;33.36;30.34;95066.72;5072787;28;20430;-76
2023/07/17 10:26:14;;;;;;;8.73;6.57;;;;;;;33.53;30.82;95061.97;5054866;28;20056;-76
2023/07/17 10:28:40;;;;;;;7.47;6.60;;;;;;;33.62;30.33;95067.63;5071788;28;20036;-76
2023/07/17 10:31:15;;;;;;;8.05;6.60;;;;;;;33.46;28.90;95077.53;5071519;28;20036;-76
2023/07/17 10:33:40;;;;;;;7.53;6.03;;;;;;;33.45;28.82;95064.34;5072586;28;20044;-76
2023/07/17 10:36:06;;;;;;;9.68;6.15;;;;;;;33.44;29.57;95063.53;5071362;28;20033;-76
2023/07/17 10:38:35;;;;;;;7.70;5.95;;;;;;;33.33;28.43;95051.91;5071347;28;20414;-76
2023/07/17 10:41:02;;;;;;;;;;;;;;;33.35;29.28;95065.94;5071703;28;20124;-77
2023/07/17 10:43:27;;;;;;;8.98;6.28;;;;;;;33.54;29.76;95054.69;5071307;28;19919;-76
2023/07/17 10:45:53;;;;;;;9.05;6.68;;;;;;;33.46;29.27;95047.94;5071411;28;20020;-76
2023/07/17 10:48:18;;;;;;;10.02;6.55;;;;;;;33.45;29.41;95048.97;5054562;28;20044;-76
2023/07/17 10:50:52;;;;;;;5.68;5.03;;;;;;;33.70;27.37;95050.94;5071371;28;20031;-76
2023/07/17 10:53:17;;;;;;;6.25;5.65;;;;;;;33.51;26.18;95036.34;5071079;28;20024;-76
2023/07/17 10:55:42;;;;;;;7.53;5.35;;;;;;;33.56;26.48;95039.09;5071239;28;20048;-76
2023/07/17 10:58:08;;;;;;;7.15;5.43;;;;;;;33.53;27.04;95039.63;5070935;28;20519;-76
2023/07/17 11:00:36;;;;;;;8.45;4.97;;;;;;;33.24;26.68;95036.53;5037468;28;20033;-77
2023/07/17 11:03:01;;;;;;;9.25;5.70;;;;;;;32.86;27.30;95036.63;5070843;28;20045;-77
2023/07/17 11:05:27;;;;;;;6.18;5.07;;;;;;;32.95;27.92;95036.94;5037496;28;20029;-76
2023/07/17 11:07:57;;;;;;;5.93;5.32;;;;;;;32.77;27.50;95048.16;5071940;28;20032;-76
2023/07/17 11:10:22;;;;;;;6.60;5.60;;;;;;;32.60;28.74;95037.56;5070964;28;20549;-76
2023/07/17 11:12:48;;;;;;;6.05;5.38;;;;;;;32.70;28.67;95034.91;5070706;28;20040;-76
2023/07/17 11:15:16;;;;;;;7.40;5.72;;;;;;;32.75;28.61;95037.63;5070747;28;20036;-76
2023/07/17 11:17:42;;;;;;;8.02;5.80;;;;;;;32.80;29.37;95032.28;5070297;28;20052;-76
2023/07/17 11:20:08;;;;;;;6.72;5.68;;;;;;;32.89;29.75;95044.16;5070588;28;20474;-76
2023/07/17 11:22:33;;;;;;;8.70;5.80;;;;;;;33.11;29.84;95033.25;5070387;28;20031;-76
2023/07/17 11:24:59;;;;;;;11.23;5.72;;;;;;;33.00;27.16;95026.22;5070506;28;20036;-77